Time;durP1;ratioP1;P1;durP2;ratioP2;P2;SDS_P1;SDS_P2;PMS_P1;PMS_P2;Temp;Humidity;BMP_temperature;BMP_pressure;BME280_temperature;BME280_humidity;BME280_pressure;Samples;Min_cycle;Max_cycle;Signal;HPM_P1;HPM_P2
2022/01/15 00:00:21;;;;;;;8.75;2.80;;;6.20;99.90;;;;;;5051134;28;20049;-70
2022/01/15 00:02:46;;;;;;;10.60;3.67;;;6.10;99.90;;;;;;5050631;28;20071;-70
2022/01/15 00:05:12;;;;;;;4.22;3.08;;;6.10;99.90;;;;;;5050839;28;20049;-69
2022/01/15 00:07:38;;;;;;;17.75;3.75;;;6.10;99.90;;;;;;5049218;28;20103;-68
2022/01/15 00:10:06;;;;;;;15.90;3.35;;;6.10;99.90;;;;;;5049004;28;20106;-69
2022/01/15 00:12:38;;;;;;;31.60;4.57;;;6.00;99.90;;;;;;5049920;28;20052;-68
2022/01/15 00:15:04;;;;;;;;;;;6.00;99.90;;;;;;5049270;28;20484;-69
2022/01/15 00:17:46;;;;;;;40.50;5.20;;;6.00;99.90;;;;;;5050443;28;19920;-68
2022/01/15 00:20:19;;;;;;;49.72;6.32;;;5.90;99.90;;;;;;5049159;28;20053;-68
2022/01/15 00:22:46;;;;;;;50.67;6.15;;;6.00;99.90;;;;;;5050215;28;20041;-69
2022/01/15 00:25:12;;;;;;;59.90;6.53;;;6.00;99.90;;;;;;5050779;28;20045;-69
2022/01/15 00:27:38;;;;;;;116.15;7.47;;;5.90;99.90;;;;;;5049638;28;20071;-69
2022/01/15 00:30:05;;;;;;;54.20;6.63;;;6.00;99.90;;;;;;5049867;28;20037;-69
2022/01/15 00:32:31;;;;;;;65.28;5.93;;;6.00;99.90;;;;;;5050819;28;20053;-69
2022/01/15 00:34:57;;;;;;;4.63;2.83;;;6.00;99.90;;;;;;5049637;28;20040;-68
2022/01/15 00:37:23;;;;;;;4.65;2.67;;;6.10;99.90;;;;;;5049800;28;20495;-68
2022/01/15 00:39:48;;;;;;;7.15;2.97;;;6.00;99.90;;;;;;5050720;28;20060;-68
2022/01/15 00:42:14;;;;;;;17.80;3.33;;;6.00;99.90;;;;;;5049399;28;20064;-68
2022/01/15 00:44:41;;;;;;;4.60;2.85;;;6.10;99.90;;;;;;5049285;28;20059;-69
2022/01/15 00:47:07;;;;;;;3.75;2.63;;;6.10;99.90;;;;;;5049092;28;20411;-68
2022/01/15 00:49:33;;;;;;;5.55;3.42;;;6.10;99.90;;;;;;5049412;28;20041;-69
2022/01/15 00:51:58;;;;;;;3.63;2.45;;;6.10;99.90;;;;;;5048704;28;20041;-68
2022/01/15 00:54:24;;;;;;;4.20;2.47;;;6.10;99.90;;;;;;5049149;28;20499;-68
2022/01/15 00:56:49;;;;;;;8.00;2.22;;;6.10;99.90;;;;;;5050348;28;20041;-68
2022/01/15 00:59:18;;;;;;;3.03;2.40;;;6.10;99.90;;;;;;5048799;28;20690;-68
2022/01/15 01:01:44;;;;;;;6.53;2.40;;;6.10;99.90;;;;;;5049541;28;20049;-69
2022/01/15 01:04:10;;;;;;;5.32;2.60;;;6.10;99.90;;;;;;5048291;28;20132;-68
2022/01/15 01:06:35;;;;;;;8.40;3.03;;;6.10;99.90;;;;;;5048870;28;20120;-68
2022/01/15 01:09:01;;;;;;;8.45;3.15;;;6.10;99.90;;;;;;5049061;28;20064;-68
2022/01/15 01:11:42;;;;;;;17.05;3.65;;;6.10;99.90;;;;;;5049839;28;20040;-68
2022/01/15 01:24:29;;;;;;;4.25;2.63;;;5.90;99.90;;;;;;5050351;28;20052;-68
2022/01/15 01:27:02;;;;;;;5.28;2.72;;;5.90;99.90;;;;;;5048628;28;20068;-68
2022/01/15 01:32:24;;;;;;;6.78;3.65;;;5.90;99.90;;;;;;5053539;28;20053;-69
2022/01/15 01:34:50;;;;;;;3.78;2.95;;;5.90;99.90;;;;;;5052540;28;20049;-68
2022/01/15 01:37:20;;;;;;;3.38;1.88;;;6.00;99.90;;;;;;5052177;28;20056;-68
2022/01/15 01:39:54;;;;;;;2.40;1.77;;;6.00;99.90;;;;;;5052089;28;20080;-68
2022/01/15 01:45:09;;;;;;;4.70;2.25;;;6.00;99.90;;;;;;5053788;28;20484;-68
2022/01/15 01:47:41;;;;;;;3.38;1.92;;;6.00;99.90;;;;;;5053056;28;20435;-68
2022/01/15 01:50:14;;;;;;;1.38;1.20;;;6.00;99.90;;;;;;5053195;28;20041;-68
2022/01/15 01:52:41;;;;;;;2.50;1.63;;;6.00;99.90;;;;;;5053519;28;20048;-68
2022/01/15 01:55:07;;;;;;;1.58;1.45;;;6.00;99.90;;;;;;5051342;28;20077;-68
2022/01/15 01:57:33;;;;;;;4.72;2.10;;;6.00;99.90;;;;;;5051881;28;20071;-68
2022/01/15 01:59:59;;;;;;;1.67;1.50;;;6.00;99.90;;;;;;5053084;28;20075;-68
2022/01/15 02:02:25;;;;;;;2.47;1.40;;;6.00;99.90;;;;;;5050938;28;20452;-68
2022/01/15 02:04:55;;;;;;;2.60;1.60;;;6.00;99.90;;;;;;5051949;28;20106;-68
2022/01/15 02:07:21;;;;;;;1.30;1.20;;;6.00;99.90;;;;;;5052637;28;20076;-68
2022/01/15 02:09:47;;;;;;;2.30;1.30;;;6.00;99.90;;;;;;5053018;28;20071;-69
2022/01/15 02:12:12;;;;;;;1.40;1.02;;;6.00;99.90;;;;;;5051701;28;20052;-68
2022/01/15 02:14:38;;;;;;;1.10;1.00;;;6.00;99.90;;;;;;5051068;28;20044;-68
2022/01/15 02:17:03;;;;;;;1.80;1.20;;;6.00;99.90;;;;;;5051491;28;20048;-69
2022/01/15 02:19:34;;;;;;;1.65;1.30;;;6.00;99.90;;;;;;5051686;28;20103;-68
2022/01/15 02:24:48;;;;;;;1.13;0.90;;;6.00;99.90;;;;;;5042527;28;20065;-68
2022/01/15 02:27:14;;;;;;;4.10;1.20;;;6.00;99.90;;;;;;5052593;28;20409;-68
2022/01/15 02:29:40;;;;;;;3.33;1.20;;;6.00;99.90;;;;;;5052181;28;20114;-68
2022/01/15 02:32:06;;;;;;;1.98;1.10;;;5.90;99.90;;;;;;5052612;28;20078;-68
2022/01/15 02:34:31;;;;;;;1.88;1.15;;;5.90;99.90;;;;;;5052912;28;20051;-68
2022/01/15 02:36:57;;;;;;;1.63;1.33;;;5.90;99.90;;;;;;5052144;28;20044;-68
2022/01/15 02:39:22;;;;;;;2.30;1.15;;;5.90;99.90;;;;;;5052406;28;20032;-68
2022/01/15 02:41:48;;;;;;;1.50;1.02;;;5.90;99.90;;;;;;5050878;28;20045;-68
2022/01/15 02:44:19;;;;;;;2.28;1.02;;;5.90;99.90;;;;;;5050324;28;20069;-68
2022/01/15 02:49:14;;;;;;;1.52;1.00;;;5.90;99.90;;;;;;5051986;28;20084;-68
2022/01/15 02:51:40;;;;;;;1.23;0.93;;;5.90;99.90;;;;;;5050851;28;20044;-68
2022/01/15 02:54:06;;;;;;;2.28;1.08;;;5.80;99.90;;;;;;5052084;28;20094;-69
2022/01/15 02:56:40;;;;;;;1.25;0.77;;;5.90;99.90;;;;;;5050597;28;20041;-68
2022/01/15 02:59:15;;;;;;;1.90;1.02;;;5.80;99.90;;;;;;5050792;28;20545;-68
2022/01/15 03:01:40;;;;;;;1.65;0.93;;;5.80;99.90;;;;;;5050833;28;20045;-68
2022/01/15 03:04:06;;;;;;;1.83;1.15;;;5.80;99.90;;;;;;5050057;28;20140;-69
2022/01/15 03:06:31;;;;;;;1.08;0.98;;;5.80;99.90;;;;;;5051044;28;20045;-68
2022/01/15 03:08:57;;;;;;;1.48;0.85;;;5.80;99.90;;;;;;5050638;28;20083;-68
2022/01/15 03:11:23;;;;;;;2.53;1.10;;;5.80;99.90;;;;;;5049873;28;20076;-68
2022/01/15 03:13:49;;;;;;;1.00;0.88;;;5.80;99.90;;;;;;5051969;28;20052;-68
2022/01/15 03:16:17;;;;;;;2.58;1.15;;;5.80;99.90;;;;;;5050657;28;20080;-68
2022/01/15 03:18:43;;;;;;;1.17;0.98;;;5.80;99.90;;;;;;5050235;28;20071;-68
2022/01/15 03:21:09;;;;;;;2.67;1.38;;;5.70;99.90;;;;;;5051409;28;20087;-68
2022/01/15 03:23:35;;;;;;;1.60;0.95;;;5.70;99.90;;;;;;5051839;28;20045;-68
2022/01/15 03:26:01;;;;;;;1.10;1.00;;;5.70;99.90;;;;;;5050788;28;20064;-68
2022/01/15 03:28:27;;;;;;;1.13;0.80;;;5.70;99.90;;;;;;5051881;28;20053;-68
2022/01/15 03:30:53;;;;;;;0.90;0.70;;;5.70;99.90;;;;;;5050186;28;20098;-68
2022/01/15 03:33:18;;;;;;;2.78;1.23;;;5.70;99.90;;;;;;5049354;28;20056;-68
2022/01/15 03:35:45;;;;;;;1.02;0.70;;;5.70;99.90;;;;;;5051504;28;20057;-68
2022/01/15 03:38:11;;;;;;;1.67;0.80;;;5.70;99.90;;;;;;5049736;28;20052;-68
2022/01/15 03:40:37;;;;;;;1.13;0.93;;;5.60;99.90;;;;;;5049756;28;20048;-68
2022/01/15 03:43:04;;;;;;;2.08;1.08;;;5.60;99.90;;;;;;5049959;28;20049;-68
2022/01/15 03:45:30;;;;;;;1.60;1.00;;;5.60;99.90;;;;;;5049890;28;20065;-68
2022/01/15 03:47:58;;;;;;;1.95;0.82;;;5.60;99.90;;;;;;5049815;28;20063;-68
2022/01/15 03:50:25;;;;;;;1.77;1.02;;;5.60;99.90;;;;;;5051048;28;20041;-68
2022/01/15 03:52:51;;;;;;;1.52;1.10;;;5.70;99.90;;;;;;5048529;28;20048;-68
2022/01/15 03:55:16;;;;;;;1.27;0.95;;;5.60;99.90;;;;;;5051027;28;20052;-68
2022/01/15 03:57:42;;;;;;;2.47;1.15;;;5.70;99.90;;;;;;5049874;28;20053;-68
2022/01/15 04:00:12;;;;;;;1.58;1.13;;;5.60;99.90;;;;;;5050471;28;20039;-68
2022/01/15 04:02:38;;;;;;;1.80;1.08;;;5.70;99.90;;;;;;5051314;28;20052;-68
2022/01/15 04:05:03;;;;;;;1.95;1.40;;;5.70;99.90;;;;;;5049575;28;20082;-69
2022/01/15 04:07:29;;;;;;;1.52;1.30;;;5.70;99.90;;;;;;5049380;28;20049;-68
2022/01/15 04:09:55;;;;;;;1.73;1.15;;;5.70;99.90;;;;;;5051196;28;20051;-68
2022/01/15 04:12:20;;;;;;;2.60;1.20;;;5.70;99.90;;;;;;5049585;28;20098;-68
2022/01/15 04:14:46;;;;;;;1.95;1.05;;;5.70;99.90;;;;;;5050466;28;20139;-68
2022/01/15 04:17:11;;;;;;;1.95;1.05;;;5.70;99.90;;;;;;5049355;28;20088;-69
2022/01/15 04:19:39;;;;;;;2.35;1.17;;;5.70;99.90;;;;;;5050476;28;20447;-68
2022/01/15 04:22:06;;;;;;;1.55;1.17;;;5.70;99.90;;;;;;5048652;28;20051;-68
2022/01/15 04:24:32;;;;;;;2.45;1.40;;;5.80;99.90;;;;;;5050900;28;20052;-68
2022/01/15 04:26:57;;;;;;;1.98;1.10;;;5.70;99.90;;;;;;5050851;28;20049;-68
2022/01/15 04:29:23;;;;;;;2.60;1.38;;;5.70;99.90;;;;;;5048812;28;20041;-68
2022/01/15 04:31:50;;;;;;;3.22;1.70;;;5.70;99.90;;;;;;5049378;28;20488;-68
2022/01/15 04:34:19;;;;;;;1.77;1.10;;;5.70;99.90;;;;;;5049245;28;20052;-68
2022/01/15 04:36:45;;;;;;;5.53;1.48;;;5.70;99.90;;;;;;5050088;28;20120;-68
2022/01/15 04:39:11;;;;;;;1.52;1.30;;;5.70;99.90;;;;;;5049204;28;20075;-69
2022/01/15 04:41:38;;;;;;;2.97;1.40;;;5.70;99.90;;;;;;5050931;28;20052;-68
2022/01/15 04:44:05;;;;;;;1.58;1.10;;;5.60;99.90;;;;;;5049836;28;20037;-68
2022/01/15 04:46:32;;;;;;;3.95;1.15;;;5.60;99.90;;;;;;5049303;28;20507;-68
2022/01/15 04:48:57;;;;;;;2.13;1.30;;;5.70;99.90;;;;;;5048754;28;20132;-68
2022/01/15 04:51:23;;;;;;;1.83;1.13;;;5.70;99.90;;;;;;5048858;28;20135;-68
2022/01/15 04:53:49;;;;;;;1.55;1.25;;;5.70;99.90;;;;;;5050913;28;20102;-68
2022/01/15 04:56:14;;;;;;;3.15;2.20;;;5.60;99.90;;;;;;5048697;28;20052;-68
2022/01/15 04:58:40;;;;;;;4.13;1.90;;;5.60;99.90;;;;;;5050585;28;20057;-68
2022/01/15 05:01:05;;;;;;;3.10;1.88;;;5.60;99.90;;;;;;5050301;28;20396;-68
2022/01/15 05:03:32;;;;;;;3.03;1.50;;;5.60;99.90;;;;;;5051034;28;20040;-68
2022/01/15 05:05:58;;;;;;;2.38;1.70;;;5.60;99.90;;;;;;5053443;28;20049;-68
2022/01/15 05:08:24;;;;;;;3.35;1.77;;;5.60;99.90;;;;;;5054252;28;20048;-68
2022/01/15 05:10:50;;;;;;;2.85;1.80;;;5.60;99.90;;;;;;5052258;28;20040;-68
2022/01/15 05:13:16;;;;;;;2.97;1.60;;;5.70;99.90;;;;;;5053909;28;20053;-68
2022/01/15 05:15:43;;;;;;;2.83;1.65;;;5.60;99.90;;;;;;5053988;28;20506;-68
2022/01/15 05:18:09;;;;;;;1.92;1.27;;;5.60;99.90;;;;;;5052043;28;20057;-68
2022/01/15 05:20:36;;;;;;;2.13;1.40;;;5.60;99.90;;;;;;5052573;28;20084;-69
2022/01/15 05:23:02;;;;;;;4.53;1.70;;;5.70;99.90;;;;;;5053236;28;20495;-68
2022/01/15 05:25:27;;;;;;;1.70;1.40;;;5.60;99.90;;;;;;5053542;28;20033;-68
2022/01/15 05:27:53;;;;;;;5.10;2.15;;;5.70;99.90;;;;;;5054023;28;20618;-68
2022/01/15 05:30:19;;;;;;;1.95;1.55;;;5.60;99.90;;;;;;5052465;28;20406;-68
2022/01/15 05:32:45;;;;;;;2.20;1.77;;;5.60;99.90;;;;;;5052681;28;20045;-68
2022/01/15 05:35:11;;;;;;;3.50;2.20;;;5.60;99.90;;;;;;5052115;28;20044;-68
2022/01/15 05:37:36;;;;;;;3.60;1.80;;;5.60;99.90;;;;;;5053951;28;20052;-68
2022/01/15 05:40:04;;;;;;;2.72;1.50;;;5.60;99.90;;;;;;5051462;28;20037;-68
2022/01/15 05:42:29;;;;;;;2.95;1.90;;;5.60;99.90;;;;;;5053797;28;20052;-68
2022/01/15 05:44:55;;;;;;;3.53;2.45;;;5.70;99.90;;;;;;5053725;28;20045;-68
2022/01/15 05:47:20;;;;;;;3.78;2.22;;;5.60;99.90;;;;;;5051772;28;20045;-68
2022/01/15 05:49:46;;;;;;;3.03;2.33;;;5.60;99.90;;;;;;5052419;28;20075;-68
2022/01/15 05:52:12;;;;;;;3.30;2.63;;;5.60;99.90;;;;;;5051414;28;20140;-68
2022/01/15 05:54:37;;;;;;;3.83;2.17;;;5.60;99.90;;;;;;5053453;28;20450;-68
2022/01/15 05:57:03;;;;;;;4.75;2.70;;;5.60;99.90;;;;;;5051913;28;20056;-69
2022/01/15 05:59:28;;;;;;;4.43;2.72;;;5.70;99.90;;;;;;5051107;28;20060;-68
2022/01/15 06:01:54;;;;;;;3.10;1.95;;;5.70;99.90;;;;;;5051981;28;20094;-68
2022/01/15 06:04:20;;;;;;;3.65;2.20;;;5.60;99.90;;;;;;5052160;28;20059;-68
2022/01/15 06:06:45;;;;;;;3.53;2.40;;;5.60;99.90;;;;;;5051265;28;20081;-68
2022/01/15 06:09:11;;;;;;;6.97;2.15;;;5.60;99.90;;;;;;5052486;28;20415;-68
2022/01/15 06:11:39;;;;;;;4.95;2.50;;;5.60;99.90;;;;;;5051668;28;20059;-68
2022/01/15 06:14:04;;;;;;;4.40;2.22;;;5.60;99.90;;;;;;5050497;28;20080;-68
2022/01/15 06:16:30;;;;;;;3.95;2.17;;;5.60;99.90;;;;;;5051271;28;20090;-69
2022/01/15 06:18:56;;;;;;;2.35;1.88;;;5.60;99.90;;;;;;5051668;28;20090;-68
2022/01/15 06:21:21;;;;;;;3.25;2.45;;;5.60;99.90;;;;;;5050722;28;20080;-68
2022/01/15 06:23:47;;;;;;;2.25;1.75;;;5.60;99.90;;;;;;5053128;28;20181;-68
2022/01/15 06:26:13;;;;;;;4.53;2.65;;;5.60;99.90;;;;;;5052615;28;20399;-68
2022/01/15 06:28:39;;;;;;;3.80;2.45;;;5.50;99.90;;;;;;5050937;28;20077;-68
2022/01/15 06:31:04;;;;;;;3.78;1.90;;;5.60;99.90;;;;;;5052488;28;20041;-68
2022/01/15 06:33:30;;;;;;;3.90;1.98;;;5.60;99.90;;;;;;5052606;28;20049;-68
2022/01/15 06:35:55;;;;;;;4.20;2.38;;;5.50;99.90;;;;;;5050877;28;20053;-68
2022/01/15 06:38:21;;;;;;;4.30;2.45;;;5.50;99.90;;;;;;5051388;28;20136;-68
2022/01/15 06:40:46;;;;;;;3.75;2.53;;;5.60;99.90;;;;;;5031396;28;20064;-68
2022/01/15 06:43:12;;;;;;;3.72;2.20;;;5.60;99.90;;;;;;5030441;28;20068;-68
2022/01/15 06:45:38;;;;;;;5.60;2.67;;;5.50;99.90;;;;;;5035224;28;20055;-68
2022/01/15 06:48:04;;;;;;;4.40;2.25;;;5.50;99.90;;;;;;5050884;28;20052;-68
2022/01/15 06:50:30;;;;;;;10.30;3.72;;;5.50;99.90;;;;;;5051951;28;20394;-68
2022/01/15 06:52:57;;;;;;;3.75;2.28;;;5.50;99.90;;;;;;5052482;28;20045;-68
2022/01/15 06:55:23;;;;;;;4.32;2.55;;;5.50;99.90;;;;;;5050649;28;20071;-68
2022/01/15 06:57:48;;;;;;;4.47;2.40;;;5.50;99.90;;;;;;5050799;28;20049;-68
2022/01/15 07:00:15;;;;;;;4.45;3.13;;;5.50;99.90;;;;;;5050439;28;20399;-68
2022/01/15 07:02:41;;;;;;;3.72;2.85;;;5.50;99.90;;;;;;5052101;28;20051;-68
2022/01/15 07:05:08;;;;;;;5.70;3.20;;;5.50;99.90;;;;;;5050576;28;20107;-68
2022/01/15 07:07:35;;;;;;;6.53;3.50;;;5.50;99.90;;;;;;5050699;28;20104;-68
2022/01/15 07:10:01;;;;;;;3.92;3.03;;;5.50;99.90;;;;;;5050806;28;20040;-69
2022/01/15 07:12:26;;;;;;;4.45;3.13;;;5.50;99.90;;;;;;5051968;28;20041;-68
2022/01/15 07:14:52;;;;;;;4.40;3.10;;;5.50;99.90;;;;;;5051911;28;20041;-68
2022/01/15 07:17:18;;;;;;;3.35;3.05;;;5.40;99.90;;;;;;5049450;28;20056;-68
2022/01/15 07:19:43;;;;;;;4.07;3.00;;;5.50;99.90;;;;;;5050323;28;20052;-68
2022/01/15 07:22:09;;;;;;;4.78;2.85;;;5.50;99.90;;;;;;5050532;28;20060;-68
2022/01/15 07:24:35;;;;;;;3.60;3.30;;;5.50;99.90;;;;;;5050019;28;20487;-68
2022/01/15 07:27:01;;;;;;;4.75;2.85;;;5.40;99.90;;;;;;5048519;28;20045;-68
2022/01/15 07:29:29;;;;;;;3.22;2.90;;;5.40;99.90;;;;;;5050539;28;20788;-68
2022/01/15 07:31:55;;;;;;;4.85;3.17;;;5.40;99.90;;;;;;5050987;28;20092;-68
2022/01/15 07:34:20;;;;;;;2.67;2.38;;;5.40;99.90;;;;;;5050014;28;20502;-68
2022/01/15 07:36:51;;;;;;;3.13;2.35;;;5.40;99.90;;;;;;5051498;28;20076;-68
2022/01/15 07:39:16;;;;;;;2.65;2.13;;;5.30;99.90;;;;;;5050725;28;20083;-68
2022/01/15 07:41:42;;;;;;;3.00;1.90;;;5.30;99.90;;;;;;5051467;28;20088;-68
2022/01/15 07:44:08;;;;;;;2.22;1.67;;;5.30;99.90;;;;;;5049670;28;20446;-68
2022/01/15 07:46:34;;;;;;;1.90;1.70;;;5.30;99.90;;;;;;5048821;28;20117;-68
2022/01/15 07:48:59;;;;;;;2.40;2.10;;;5.30;99.90;;;;;;5049870;28;20052;-68
2022/01/15 07:51:25;;;;;;;2.97;1.95;;;5.30;99.90;;;;;;5049569;28;20053;-68
2022/01/15 07:53:50;;;;;;;5.10;1.90;;;5.30;99.90;;;;;;5049844;28;20056;-68
2022/01/15 07:56:16;;;;;;;3.22;2.03;;;5.30;99.90;;;;;;5049540;28;20095;-69
2022/01/15 07:58:42;;;;;;;4.10;2.83;;;5.30;99.90;;;;;;5049445;28;20165;-68
2022/01/15 08:01:07;;;;;;;4.97;2.20;;;5.30;99.90;;;;;;5048076;28;20045;-68
2022/01/15 08:03:33;;;;;;;3.28;2.58;;;5.30;99.90;;;;;;5051086;28;20055;-68
2022/01/15 08:05:58;;;;;;;4.43;2.90;;;5.30;99.90;;;;;;5049025;28;20135;-68
2022/01/15 08:08:24;;;;;;;3.58;2.33;;;5.30;99.90;;;;;;5050815;28;20041;-68
2022/01/15 08:10:49;;;;;;;3.13;2.25;;;5.30;99.90;;;;;;5051136;28;20052;-68
2022/01/15 08:13:16;;;;;;;3.22;2.60;;;5.30;99.90;;;;;;5049041;28;20060;-68
2022/01/15 08:15:42;;;;;;;3.45;2.60;;;5.30;99.90;;;;;;5050997;28;20049;-68
2022/01/15 08:18:07;;;;;;;3.70;3.13;;;5.30;99.90;;;;;;5049963;28;20065;-70
2022/01/15 08:20:33;;;;;;;3.78;2.58;;;5.40;99.90;;;;;;5050047;28;20056;-69
2022/01/15 08:22:59;;;;;;;4.22;2.95;;;5.30;99.90;;;;;;5049603;28;20059;-68
2022/01/15 08:25:25;;;;;;;4.10;3.15;;;5.30;99.90;;;;;;5049250;28;20062;-73
2022/01/15 08:27:52;;;;;;;4.25;3.17;;;5.40;99.90;;;;;;5050290;28;20102;-70
2022/01/15 08:30:18;;;;;;;6.18;3.45;;;5.30;99.90;;;;;;5050747;28;20037;-73
2022/01/15 08:32:44;;;;;;;4.28;3.13;;;5.40;99.90;;;;;;5049767;28;20154;-73
2022/01/15 08:35:10;;;;;;;6.30;4.00;;;5.30;99.90;;;;;;5048767;28;20579;-73
2022/01/15 08:37:37;;;;;;;4.50;3.17;;;5.40;99.90;;;;;;5049477;28;20479;-73
2022/01/15 08:40:05;;;;;;;6.53;3.78;;;5.40;99.90;;;;;;5052993;28;20060;-72
2022/01/15 08:42:30;;;;;;;7.15;4.95;;;5.30;99.90;;;;;;5052849;28;20135;-73
2022/01/15 08:44:56;;;;;;;5.45;4.05;;;5.40;99.90;;;;;;5053501;28;20128;-73
2022/01/15 08:47:22;;;;;;;4.72;3.80;;;5.30;99.90;;;;;;5052861;28;20457;-74
2022/01/15 08:49:47;;;;;;;7.40;5.03;;;5.40;99.90;;;;;;5054024;28;20052;-73
2022/01/15 08:52:14;;;;;;;7.07;4.10;;;5.40;99.90;;;;;;5052866;28;20118;-73
2022/01/15 08:54:39;;;;;;;5.95;3.90;;;5.40;99.90;;;;;;5052439;28;20048;-74
2022/01/15 08:57:05;;;;;;;6.65;4.13;;;5.40;99.90;;;;;;5051612;28;20376;-74
2022/01/15 08:59:31;;;;;;;5.45;4.15;;;5.40;99.90;;;;;;5051758;28;20082;-74
2022/01/15 09:01:58;;;;;;;7.43;4.57;;;5.30;99.90;;;;;;5052156;28;20151;-74
2022/01/15 09:04:24;;;;;;;8.05;4.63;;;5.40;99.90;;;;;;5052140;28;20071;-74
2022/01/15 09:06:50;;;;;;;7.07;4.70;;;5.40;99.90;;;;;;5085666;28;20107;-74
2022/01/15 09:09:16;;;;;;;8.82;5.43;;;5.40;99.90;;;;;;5051117;28;20546;-73
2022/01/15 09:11:41;;;;;;;9.77;5.22;;;5.40;99.90;;;;;;5051924;28;20049;-73
2022/01/15 09:14:07;;;;;;;10.43;5.60;;;5.40;99.90;;;;;;5051996;28;20101;-74
2022/01/15 09:16:33;;;;;;;8.77;5.47;;;5.40;99.90;;;;;;5051341;28;20049;-74
2022/01/15 09:18:58;;;;;;;9.48;5.32;;;5.40;99.90;;;;;;5053423;28;20398;-73
2022/01/15 09:21:24;;;;;;;9.65;5.13;;;5.40;99.90;;;;;;5051439;28;20072;-74
2022/01/15 09:23:51;;;;;;;8.18;5.30;;;5.40;99.90;;;;;;5050633;28;20049;-75
2022/01/15 09:31:45;;;;;;;5.82;3.67;;;5.40;99.90;;;;;;5083732;28;20060;-74
2022/01/15 09:34:11;;;;;;;7.60;4.68;;;5.40;99.90;;;;;;5051430;28;20056;-74
2022/01/15 09:36:36;;;;;;;6.28;4.07;;;5.40;99.90;;;;;;5051479;28;20045;-74
2022/01/15 09:39:02;;;;;;;5.85;4.10;;;5.40;99.90;;;;;;5050789;28;20080;-75
2022/01/15 09:41:28;;;;;;;5.30;4.45;;;5.40;99.90;;;;;;5041555;28;20049;-74
2022/01/15 09:43:55;;;;;;;5.65;4.30;;;5.40;99.90;;;;;;5032027;28;20387;-75
2022/01/15 09:46:21;;;;;;;5.85;4.15;;;5.40;99.90;;;;;;5032108;28;20136;-74
2022/01/15 09:48:48;;;;;;;4.72;3.85;;;5.40;99.90;;;;;;5032955;28;20458;-73
2022/01/15 09:51:14;;;;;;;5.15;3.38;;;5.40;99.90;;;;;;5029617;28;20132;-73
2022/01/15 09:53:41;;;;;;;7.28;4.15;;;5.30;99.90;;;;;;5034456;28;20618;-74
2022/01/15 09:56:07;;;;;;;6.65;3.92;;;5.40;99.90;;;;;;5051745;28;20843;-73
2022/01/15 09:58:33;;;;;;;5.95;3.63;;;5.30;99.90;;;;;;5051076;28;20057;-74
2022/01/15 10:00:59;;;;;;;7.30;5.10;;;5.40;99.90;;;;;;5039783;28;20057;-73
2022/01/15 10:03:25;;;;;;;6.35;5.00;;;5.40;99.90;;;;;;5032366;28;20400;-73
2022/01/15 10:05:50;;;;;;;7.45;4.40;;;5.40;99.90;;;;;;5031940;28;20038;-73
2022/01/15 10:08:20;;;;;;;8.15;4.50;;;5.40;99.90;;;;;;5031137;28;20133;-73
2022/01/15 10:10:53;;;;;;;8.00;4.97;;;5.40;99.90;;;;;;5067881;28;20435;-73
2022/01/15 10:13:28;;;;;;;8.00;6.10;;;5.40;99.90;;;;;;5051771;28;20095;-74
2022/01/15 10:15:59;;;;;;;7.38;4.90;;;5.40;99.90;;;;;;5052511;28;20057;-73
2022/01/15 10:18:30;;;;;;;9.57;5.35;;;5.40;99.90;;;;;;5050821;28;20044;-73
2022/01/15 10:21:10;;;;;;;8.95;5.43;;;5.40;99.90;;;;;;5077756;28;20053;-73
2022/01/15 10:23:46;;;;;;;12.13;7.43;;;5.40;99.90;;;;;;5050698;28;20060;-73
2022/01/15 10:26:17;;;;;;;9.70;6.15;;;5.40;99.90;;;;;;5050419;28;20049;-73
2022/01/15 10:29:03;;;;;;;10.20;6.63;;;5.40;99.90;;;;;;5050900;28;20044;-72
2022/01/15 10:31:37;;;;;;;11.80;7.05;;;5.40;99.90;;;;;;5050196;28;20044;-72
2022/01/15 10:34:25;;;;;;;14.77;8.20;;;5.40;99.90;;;;;;5050785;28;20045;-73
2022/01/15 10:36:51;;;;;;;12.65;7.28;;;5.40;99.90;;;;;;5052649;28;20144;-73
2022/01/15 10:39:19;;;;;;;12.25;7.50;;;5.40;99.90;;;;;;5051145;28;20144;-72
2022/01/15 10:41:46;;;;;;;15.70;9.20;;;5.40;99.90;;;;;;5050988;28;20102;-73
2022/01/15 10:44:29;;;;;;;12.32;8.07;;;5.40;99.90;;;;;;5051267;28;20084;-73
2022/01/15 10:47:16;;;;;;;19.20;8.90;;;6.80;99.90;;;;;;5051590;28;20049;-73
2022/01/15 10:49:42;;;;;;;11.30;7.75;;;5.40;99.90;;;;;;5050848;28;20054;-73
2022/01/15 10:52:11;;;;;;;12.18;7.25;;;5.50;99.90;;;;;;5052350;28;20055;-73
2022/01/15 10:55:06;;;;;;;9.75;6.95;;;5.50;99.90;;;;;;5050763;28;20091;-73
2022/01/15 10:57:37;;;;;;;11.63;7.28;;;5.40;99.90;;;;;;5050545;28;20380;-74
2022/01/15 11:00:11;;;;;;;11.80;6.38;;;5.40;99.90;;;;;;5050425;28;20165;-73
2022/01/15 11:02:41;;;;;;;9.88;6.78;;;5.50;99.90;;;;;;5049710;28;20507;-73
2022/01/15 11:05:43;;;;;;;11.60;6.47;;;5.40;99.90;;;;;;5049919;28;20136;-70
2022/01/15 11:08:22;;;;;;;9.77;6.90;;;5.40;99.90;;;;;;5049461;28;20057;-70
2022/01/15 11:10:52;;;;;;;10.65;6.47;;;5.40;99.90;;;;;;5049251;28;20873;-69
2022/01/15 11:13:24;;;;;;;10.23;6.75;;;5.30;99.90;;;;;;5050070;28;20083;-68
2022/01/15 11:16:00;;;;;;;10.52;6.15;;;5.30;99.90;;;;;;5049328;28;20044;-69
2022/01/15 11:18:31;;;;;;;10.70;7.85;;;5.20;99.90;;;;;;5051794;28;20052;-70
2022/01/15 11:20:59;;;;;;;12.05;7.22;;;5.30;99.90;;;;;;5051120;28;20053;-72
2022/01/15 11:23:27;;;;;;;10.95;7.05;;;5.30;99.90;;;;;;5083878;28;20057;-70
2022/01/15 11:25:55;;;;;;;12.63;7.32;;;5.30;99.90;;;;;;5051449;28;20124;-70
2022/01/15 11:28:23;;;;;;;11.05;7.13;;;5.30;99.90;;;;;;5083701;28;20057;-71
2022/01/15 11:30:54;;;;;;;12.05;7.78;;;5.30;99.90;;;;;;5084125;28;20060;-71
2022/01/15 11:33:28;;;;;;;8.70;6.32;;;5.30;99.90;;;;;;5052095;28;20052;-68
2022/01/15 11:35:53;;;;;;;16.77;8.48;;;5.30;99.90;;;;;;5051325;28;20430;-70
2022/01/15 11:38:39;;;;;;;12.50;7.28;;;5.40;99.90;;;;;;5051610;28;20057;-71
2022/01/15 11:41:06;;;;;;;13.55;8.85;;;5.30;99.90;;;;;;5052000;28;20098;-71
2022/01/15 11:43:33;;;;;;;12.95;8.93;;;5.30;99.90;;;;;;5052237;28;20041;-71
2022/01/15 11:46:04;;;;;;;16.27;9.63;;;5.30;99.90;;;;;;5050117;28;20068;-71
2022/01/15 11:48:33;;;;;;;13.32;8.50;;;5.30;99.90;;;;;;5051094;28;20040;-71
2022/01/15 11:51:14;;;;;;;16.75;9.02;;;5.30;99.90;;;;;;5051394;28;20048;-71
2022/01/15 11:53:48;;;;;;;13.20;9.13;;;5.30;99.90;;;;;;5050735;28;20059;-71
2022/01/15 11:56:18;;;;;;;16.52;10.43;;;5.30;99.90;;;;;;5050690;28;20048;-71
2022/01/15 11:58:43;;;;;;;17.10;10.50;;;5.30;99.90;;;;;;5049907;28;20041;-71
2022/01/15 12:01:40;;;;;;;22.10;11.18;;;5.30;99.90;;;;;;5051780;28;20059;-71
2022/01/15 12:04:33;;;;;;;16.88;10.85;;;5.30;99.90;;;;;;5050248;28;20045;-72
2022/01/15 12:07:04;;;;;;;;;;;5.20;99.90;;;;;;5050635;28;20052;-71
2022/01/15 12:09:53;;;;;;;18.27;9.60;;;5.20;99.90;;;;;;5050438;28;19917;-71
2022/01/15 12:14:53;;;;;;;19.48;10.90;;;5.20;99.90;;;;;;5049921;28;20060;-71
2022/01/15 12:17:31;;;;;;;25.58;13.77;;;5.20;99.90;;;;;;5083746;28;20049;-71
2022/01/15 12:20:03;;;;;;;16.15;10.45;;;5.20;99.90;;;;;;5049799;28;20407;-71
2022/01/15 12:22:36;;;;;;;22.30;11.98;;;5.20;99.90;;;;;;5050242;28;20086;-71
2022/01/15 12:25:30;;;;;;;21.60;11.80;;;5.20;99.90;;;;;;5049959;28;20044;-71
2022/01/15 12:27:55;;;;;;;19.80;12.98;;;5.20;99.90;;;;;;5049615;28;20151;-70
2022/01/15 12:30:24;;;;;;;19.50;12.00;;;5.20;99.90;;;;;;5050208;28;20139;-70
2022/01/15 12:32:52;;;;;;;20.75;11.63;;;5.10;99.90;;;;;;5084126;28;20049;-71
2022/01/15 12:35:22;;;;;;;25.00;12.80;;;5.10;99.90;;;;;;5082719;28;20040;-70
2022/01/15 12:38:12;;;;;;;24.05;12.23;;;5.10;99.90;;;;;;5051406;28;20399;-70
2022/01/15 12:40:40;;;;;;;19.40;12.15;;;5.10;99.90;;;;;;5049598;28;20057;-70
2022/01/15 12:43:10;;;;;;;18.90;11.00;;;5.00;99.90;;;;;;5049648;28;20037;-71
2022/01/15 12:45:37;;;;;;;29.40;13.20;;;5.00;99.90;;;;;;5050046;28;20099;-70
2022/01/15 12:48:04;;;;;;;20.50;11.70;;;4.90;99.90;;;;;;5050478;28;20045;-71
2022/01/15 12:50:52;;;;;;;20.25;11.73;;;4.90;99.90;;;;;;5049822;28;20099;-71
2022/01/15 12:53:21;;;;;;;15.43;8.88;;;4.90;99.90;;;;;;5051167;28;20049;-70
2022/01/15 12:55:47;;;;;;;12.88;9.20;;;4.90;99.90;;;;;;5049543;28;20526;-70
2022/01/15 12:58:22;;;;;;;20.08;10.35;;;4.90;99.90;;;;;;5048478;28;20040;-71
2022/01/15 13:00:48;;;;;;;12.32;8.98;;;4.90;99.90;;;;;;5048519;28;20071;-70
2022/01/15 13:03:17;;;;;;;13.70;9.07;;;4.80;99.90;;;;;;5047550;28;20110;-70
2022/01/15 13:05:48;;;;;;;24.20;11.38;;;4.80;99.90;;;;;;5048009;28;20055;-71
2022/01/15 13:08:28;;;;;;;19.08;10.98;;;4.70;99.90;;;;;;5047932;28;20044;-70
2022/01/15 13:11:04;;;;;;;19.30;11.07;;;4.70;99.90;;;;;;5082204;28;20391;-71
2022/01/15 13:13:41;;;;;;;16.90;10.63;;;4.80;99.90;;;;;;5048638;28;20040;-71
2022/01/15 13:16:26;;;;;;;19.02;11.75;;;4.70;99.90;;;;;;5081235;28;20044;-70
2022/01/15 13:18:55;;;;;;;24.27;11.80;;;4.70;99.90;;;;;;5048662;28;20045;-70
2022/01/15 13:21:23;;;;;;;25.13;12.77;;;4.70;99.90;;;;;;5049665;28;20065;-71
2022/01/15 13:24:08;;;;;;;23.65;12.98;;;4.70;99.90;;;;;;5047904;28;20129;-71
2022/01/15 13:26:34;;;;;;;24.23;12.88;;;4.70;99.90;;;;;;5085789;28;20347;-70